Time;durP1;ratioP1;P1;durP2;ratioP2;P2;SDS_P1;SDS_P2;PMS_P1;PMS_P2;Temp;Humidity;BMP_temperature;BMP_pressure;BME280_temperature;BME280_humidity;BME280_pressure;Samples;Min_cycle;Max_cycle;Signal;HPM_P1;HPM_P2
2021/04/15 00:01:15;;;;;;;7.93;5.68;;;;;;;3.49;70.97;101098.75;122100;1155;22538;-75
2021/04/15 00:03:44;;;;;;;7.75;5.48;;;;;;;3.43;70.90;101106.16;122122;1153;22544;-75
2021/04/15 00:06:23;;;;;;;8.50;5.65;;;;;;;3.40;71.10;101094.17;121600;1156;23094;-74
2021/04/15 00:08:54;;;;;;;9.35;5.83;;;;;;;3.37;71.23;101096.16;121687;1155;22722;-74
2021/04/15 00:11:30;;;;;;;7.63;6.00;;;;;;;3.36;71.38;101087.45;121708;1155;23559;-74
2021/04/15 00:14:00;;;;;;;7.20;4.63;;;;;;;3.34;71.35;101085.91;121689;1155;22743;-74
2021/04/15 00:16:30;;;;;;;7.93;5.78;;;;;;;3.31;71.31;101084.33;121829;1153;24361;-75
2021/04/15 00:19:00;;;;;;;7.98;5.25;;;;;;;3.29;71.59;101091.42;122111;1154;22940;-75
2021/04/15 00:21:29;;;;;;;6.75;5.58;;;;;;;3.27;71.66;101091.54;122149;1154;24821;-75
2021/04/15 00:23:58;;;;;;;13.83;7.30;;;;;;;3.24;71.69;101089.13;122186;1152;23455;-75
2021/04/15 00:26:28;;;;;;;8.70;5.33;;;;;;;3.22;71.77;101085.77;122494;1151;22524;-75
2021/04/15 00:28:59;;;;;;;5.58;4.83;;;;;;;3.21;72.04;101089.33;122468;1151;24420;-75
2021/04/15 00:31:29;;;;;;;6.88;5.88;;;;;;;3.20;71.92;101085.06;122466;1151;23229;-75
2021/04/15 00:33:58;;;;;;;7.73;5.73;;;;;;;3.18;71.99;101078.26;122097;1152;22522;-75
2021/04/15 00:36:27;;;;;;;7.60;6.43;;;;;;;3.19;72.02;101074.70;122417;1152;22503;-75
2021/04/15 00:38:56;;;;;;;7.80;5.75;;;;;;;3.18;72.33;101078.26;122439;1152;23454;-75
2021/04/15 00:41:25;;;;;;;8.58;5.70;;;;;;;3.19;71.68;101080.75;122443;1152;22531;-75
2021/04/15 00:43:54;;;;;;;7.10;4.93;;;;;;;3.16;72.20;101080.13;122381;1152;22531;-75
2021/04/15 00:46:57;;;;;;;6.73;4.05;;;;;;;3.13;72.15;101080.33;122266;1153;24444;-75
2021/04/15 00:49:39;;;;;;;9.13;4.20;;;;;;;3.06;72.10;101072.06;122475;1152;22608;-74
2021/04/15 00:52:11;;;;;;;6.80;4.35;;;;;;;3.04;72.29;101081.79;122443;1152;22827;-74
2021/04/15 00:54:49;;;;;;;7.58;5.83;;;;;;;3.03;72.54;101073.13;122415;1152;22588;-74
2021/04/15 00:57:28;;;;;;;6.20;4.75;;;;;;;3.01;72.39;101069.77;122457;1152;22503;-74
2021/04/15 00:59:59;;;;;;;7.25;5.00;;;;;;;2.99;72.30;101063.80;122219;1152;24423;-74
2021/04/15 01:02:30;;;;;;;8.10;5.23;;;;;;;2.96;72.44;101066.61;122466;1152;23496;-74
2021/04/15 01:05:06;;;;;;;8.05;5.55;;;;;;;2.95;72.67;101061.51;122488;1152;22522;-75
2021/04/15 01:07:35;;;;;;;5.10;4.48;;;;;;;2.95;72.54;101064.95;122439;1152;22571;-75
2021/04/15 01:10:11;;;;;;;9.03;5.10;;;;;;;2.96;72.50;101063.17;122229;1152;22617;-75
2021/04/15 01:13:32;;;;;;;6.40;5.03;;;;;;;2.93;72.64;101055.54;122506;1153;22524;-75
2021/04/15 01:16:04;;;;;;;8.07;4.77;;;;;;;2.91;72.83;101060.05;122106;1155;22607;-75
2021/04/15 01:19:12;;;;;;;7.18;4.95;;;;;;;2.87;72.95;101050.75;122102;1155;22592;-75
2021/04/15 01:22:42;;;;;;;10.53;5.25;;;;;;;2.80;72.94;101047.71;122060;1155;22627;-75
2021/04/15 01:25:44;;;;;;;5.73;4.83;;;;;;;2.74;73.35;101046.33;121372;1159;22616;-75
2021/04/15 01:28:22;;;;;;;6.03;4.48;;;;;;;2.75;73.16;101040.16;121552;1158;22569;-75
2021/04/15 01:30:58;;;;;;;6.33;3.55;;;;;;;2.72;73.11;101042.97;121279;1158;22572;-75
2021/04/15 01:33:37;;;;;;;6.20;3.78;;;;;;;2.74;73.33;101041.11;121508;1158;24788;-75
2021/04/15 01:36:18;;;;;;;6.53;3.58;;;;;;;2.73;73.36;101038.58;121693;1158;22657;-75
2021/04/15 01:39:14;;;;;;;4.73;3.40;;;;;;;2.71;73.34;101033.48;121618;1156;24808;-76
2021/04/15 01:42:05;;;;;;;4.78;4.08;;;;;;;2.72;73.36;101034.31;121662;1158;24699;-76
2021/04/15 01:44:52;;;;;;;4.63;3.65;;;;;;;2.69;73.47;101032.73;122003;1154;24900;-76
2021/04/15 01:47:31;;;;;;;4.58;3.50;;;;;;;2.68;73.63;101022.41;121804;1155;22538;-76
2021/04/15 01:50:24;;;;;;;7.53;4.05;;;;;;;2.72;73.81;101021.27;122045;1155;25174;-76
2021/04/15 01:52:59;;;;;;;6.73;4.93;;;;;;;2.70;73.62;101017.91;122011;1155;24386;-74
2021/04/15 01:55:48;;;;;;;5.33;3.88;;;;;;;2.68;73.68;101018.03;121856;1154;22724;-77
2021/04/15 01:58:36;;;;;;;6.00;3.70;;;;;;;2.68;73.83;101018.03;122050;1152;22632;-76
2021/04/15 02:01:24;;;;;;;6.53;3.38;;;;;;;2.66;73.78;101012.06;122473;1151;22524;-75
2021/04/15 02:04:00;;;;;;;4.15;3.28;;;;;;;2.64;73.83;101013.95;122479;1153;22524;-76
2021/04/15 02:06:33;;;;;;;4.65;3.40;;;;;;;2.64;73.93;101010.52;122526;1152;22529;-76
2021/04/15 02:09:08;;;;;;;4.48;3.08;;;;;;;2.65;73.95;101009.57;122302;1152;24078;-75
2021/04/15 02:11:46;;;;;;;5.23;3.43;;;;;;;2.61;73.98;101016.77;122469;1152;22524;-75
2021/04/15 02:14:28;;;;;;;5.90;3.28;;;;;;;2.57;73.89;101010.91;122514;1152;22529;-75
2021/04/15 02:17:02;;;;;;;5.00;3.20;;;;;;;2.57;74.20;101017.91;122536;1152;22521;-76
2021/04/15 02:19:46;;;;;;;4.98;2.45;;;;;;;2.54;74.03;101013.72;122471;1152;22532;-76
2021/04/15 02:22:38;;;;;;;4.78;3.00;;;;;;;2.52;74.22;101015.58;122526;1152;25803;-75
2021/04/15 02:25:29;;;;;;;;;;;;;;;2.44;74.00;101017.03;122472;1154;22524;-75
2021/04/15 02:28:17;;;;;;;4.05;2.58;;;;;;;2.36;74.24;101009.67;122464;1152;21333;-75
2021/04/15 02:31:10;;;;;;;4.13;2.63;;;;;;;2.34;74.23;101006.35;122360;1152;24963;-75
2021/04/15 02:33:52;;;;;;;3.13;2.83;;;;;;;2.33;74.31;101005.52;122440;1152;22531;-75
2021/04/15 02:36:25;;;;;;;4.45;3.33;;;;;;;2.31;74.56;100996.95;122460;1152;24423;-75
2021/04/15 02:39:03;;;;;;;5.18;2.60;;;;;;;2.30;74.39;100994.42;122410;1151;22304;-76
2021/04/15 02:41:33;;;;;;;3.88;2.85;;;;;;;2.26;74.56;100996.39;122470;1151;22597;-75
2021/04/15 02:44:18;;;;;;;4.03;3.08;;;;;;;2.25;74.42;100988.69;122081;1155;22608;-76
2021/04/15 02:47:11;;;;;;;5.23;2.90;;;;;;;2.23;74.80;100994.02;122102;1154;25183;-75
2021/04/15 02:49:40;;;;;;;5.83;3.80;;;;;;;2.22;74.47;100984.50;121768;1155;22539;-75
2021/04/15 02:52:17;;;;;;;5.53;3.80;;;;;;;2.22;74.84;100981.89;122067;1155;22550;-76
2021/04/15 02:55:00;;;;;;;5.78;4.40;;;;;;;2.20;74.87;100980.31;121579;1158;24793;-75
2021/04/15 02:58:15;;;;;;;5.28;3.90;;;;;;;2.18;74.97;100979.59;121574;1156;22800;-76
2021/04/15 03:00:47;;;;;;;6.18;4.90;;;;;;;2.18;75.13;100971.77;121298;1161;22561;-76
2021/04/15 03:03:20;;;;;;;11.63;6.93;;;;;;;2.18;75.05;100972.59;121523;1159;22608;-75
2021/04/15 03:06:01;;;;;;;9.48;6.40;;;;;;;2.19;75.29;100969.05;121629;1158;22617;-75
2021/04/15 03:08:30;;;;;;;7.60;5.47;;;;;;;2.20;75.50;100967.27;121509;1158;22603;-75
2021/04/15 03:11:05;;;;;;;10.40;6.33;;;;;;;2.20;75.38;100968.14;121578;1158;22613;-75
2021/04/15 03:13:43;;;;;;;6.03;4.80;;;;;;;2.24;75.40;100971.38;121724;1158;22550;-75
2021/04/15 03:16:17;;;;;;;6.00;5.28;;;;;;;2.24;75.41;100963.56;122086;1155;22604;-75
2021/04/15 03:19:02;;;;;;;6.23;4.70;;;;;;;2.23;75.33;100965.34;121555;1158;22600;-75
2021/04/15 03:21:48;;;;;;;8.63;4.45;;;;;;;2.25;75.46;100966.05;121256;1162;22599;-75
2021/04/15 03:24:29;;;;;;;5.68;5.13;;;;;;;2.26;75.49;100962.50;121215;1161;22692;-75
2021/04/15 03:27:16;;;;;;;6.53;4.63;;;;;;;2.27;75.61;100955.55;121194;1162;22635;-74
2021/04/15 03:30:47;;;;;;;6.03;5.20;;;;;;;2.28;75.55;100958.03;121173;1160;22702;-75
2021/04/15 03:33:40;;;;;;;9.70;5.70;;;;;;;2.24;75.51;100959.17;120609;1165;23101;-75
2021/04/15 03:36:16;;;;;;;;;;;;;;;2.20;75.59;100962.92;120653;1170;24812;-74
2021/04/15 03:38:56;;;;;;;5.55;4.68;;;;;;;2.16;75.66;100953.60;120910;1164;23870;-74
2021/04/15 03:41:36;;;;;;;6.63;4.90;;;;;;;2.20;75.75;100960.31;121041;1161;22673;-74
2021/04/15 03:44:36;;;;;;;7.00;4.93;;;;;;;2.23;75.84;100961.86;121412;1158;24856;-74
2021/04/15 03:47:30;;;;;;;8.30;5.25;;;;;;;2.25;75.92;100958.23;121136;1161;22575;-76
2021/04/15 03:50:08;;;;;;;7.37;5.13;;;;;;;2.26;76.01;100959.89;120908;1161;24857;-75
2021/04/15 03:52:52;;;;;;;6.20;5.03;;;;;;;2.28;75.63;100962.42;121218;1158;22661;-75
2021/04/15 03:55:34;;;;;;;7.63;5.10;;;;;;;2.23;75.72;100954.91;121236;1158;22582;-76
2021/04/15 03:58:12;;;;;;;7.10;4.73;;;;;;;2.21;75.69;100954.16;121204;1160;25292;-75
2021/04/15 04:00:48;;;;;;;6.43;5.28;;;;;;;2.19;75.97;100950.80;121441;1158;22559;-76
2021/04/15 04:03:21;;;;;;;10.05;5.20;;;;;;;2.18;75.89;100945.70;121243;1158;24703;-75
2021/04/15 04:06:03;;;;;;;6.80;4.83;;;;;;;2.19;75.90;100958.63;121302;1158;22652;-75
2021/04/15 04:08:49;;;;;;;;;;;;;;;2.08;75.60;100942.85;121250;1162;22557;-76
2021/04/15 04:11:22;;;;;;;5.60;4.98;;;;;;;2.02;75.61;100946.67;121634;1155;21352;-76
2021/04/15 04:13:59;;;;;;;8.23;5.13;;;;;;;2.02;76.08;100945.84;121658;1155;24917;-75
2021/04/15 04:17:04;;;;;;;5.30;4.68;;;;;;;2.01;76.02;100942.41;122060;1155;22633;-75
2021/04/15 04:19:43;;;;;;;8.78;5.90;;;;;;;1.99;76.15;100936.45;121696;1154;24529;-75
2021/04/15 04:22:45;;;;;;;5.30;4.73;;;;;;;2.01;76.06;100945.02;122050;1155;24790;-76
2021/04/15 04:25:53;;;;;;;6.63;5.58;;;;;;;2.01;76.19;100942.41;122427;1152;22527;-76
2021/04/15 04:28:29;;;;;;;6.05;5.40;;;;;;;2.02;76.26;100946.67;122494;1150;22530;-76
2021/04/15 04:31:22;;;;;;;7.13;6.13;;;;;;;2.04;76.48;100946.59;122489;1153;22445;-76
2021/04/15 04:33:53;;;;;;;5.60;5.10;;;;;;;2.03;76.19;100943.16;122432;1152;22985;-76
2021/04/15 04:36:25;;;;;;;9.77;7.90;;;;;;;2.01;76.28;100946.79;122502;1153;22544;-76
2021/04/15 04:38:58;;;;;;;6.45;5.58;;;;;;;2.00;76.20;100945.09;121990;1155;22582;-76
2021/04/15 04:41:40;;;;;;;7.63;6.83;;;;;;;1.99;76.32;100949.48;122042;1153;22535;-76
2021/04/15 04:44:21;;;;;;;9.28;7.10;;;;;;;1.98;76.35;100950.42;122107;1153;22562;-76
2021/04/15 04:47:02;;;;;;;12.18;8.73;;;;;;;1.97;76.58;100947.92;122102;1152;22538;-76
2021/04/15 04:49:40;;;;;;;11.50;6.85;;;;;;;1.97;76.44;100956.58;122149;1153;22542;-76
2021/04/15 04:52:23;;;;;;;9.33;6.87;;;;;;;1.99;76.65;100952.08;122090;1155;24773;-76
2021/04/15 04:54:52;;;;;;;8.63;5.58;;;;;;;1.97;76.41;100945.32;122165;1155;23323;-74
2021/04/15 04:57:36;;;;;;;8.45;5.58;;;;;;;1.94;76.24;100948.95;122324;1152;22582;-74
2021/04/15 05:00:18;;;;;;;6.68;5.60;;;;;;;1.93;76.43;100949.86;122466;1152;22535;-74
2021/04/15 05:02:57;;;;;;;6.87;5.73;;;;;;;1.92;76.75;100947.37;122477;1153;22528;-74
2021/04/15 05:05:30;;;;;;;8.95;5.78;;;;;;;1.95;76.78;100948.01;122269;1152;22604;-74
2021/04/15 05:08:12;;;;;;;5.90;5.30;;;;;;;1.95;76.76;100944.56;122197;1153;22530;-75
2021/04/15 05:10:40;;;;;;;6.25;4.73;;;;;;;1.97;76.88;100953.14;122316;1152;22610;-75
2021/04/15 05:13:19;;;;;;;8.98;4.85;;;;;;;1.98;76.67;100942.60;122108;1153;22543;-74
2021/04/15 05:15:48;;;;;;;5.55;4.60;;;;;;;1.98;76.79;100940.00;122199;1150;22523;-75
2021/04/15 05:18:20;;;;;;;7.78;6.33;;;;;;;1.99;76.86;100935.61;122493;1152;22534;-75
2021/04/15 05:20:59;;;;;;;13.00;11.68;;;;;;;1.97;76.63;100943.55;122118;1155;24426;-75
2021/04/15 05:23:41;;;;;;;7.40;6.70;;;;;;;1.97;76.81;100942.72;122159;1153;22946;-75
2021/04/15 05:26:29;;;;;;;13.45;12.05;;;;;;;1.97;76.82;100933.13;122142;1153;22529;-75
2021/04/15 05:29:01;;;;;;;13.15;11.85;;;;;;;1.95;76.80;100932.38;122063;1155;23034;-75
2021/04/15 05:31:37;;;;;;;13.13;11.90;;;;;;;1.98;77.02;100939.17;122131;1153;22536;-75
2021/04/15 05:34:42;;;;;;;11.75;10.55;;;;;;;1.97;76.88;100943.55;122072;1153;22971;-76
2021/04/15 05:37:20;;;;;;;13.05;11.80;;;;;;;1.97;77.06;100934.90;122035;1156;22540;-76
2021/04/15 05:39:49;;;;;;;9.28;8.38;;;;;;;1.97;76.90;100927.08;122001;1155;22535;-76
2021/04/15 05:42:39;;;;;;;11.23;9.95;;;;;;;1.96;77.07;100931.43;122042;1153;24379;-77
2021/04/15 05:45:23;;;;;;;9.73;8.77;;;;;;;1.94;76.92;100928.11;122180;1154;23323;-76
2021/04/15 05:48:11;;;;;;;7.73;7.03;;;;;;;1.96;77.18;100935.81;122028;1155;22553;-76
2021/04/15 05:50:50;;;;;;;8.58;6.60;;;;;;;1.93;77.16;100930.80;121757;1153;22549;-77
2021/04/15 05:53:33;;;;;;;9.05;6.65;;;;;;;1.91;77.09;100923.09;122095;1155;22634;-77
2021/04/15 05:56:26;;;;;;;7.10;6.40;;;;;;;1.92;77.06;100931.73;122075;1155;24489;-74
2021/04/15 05:59:13;;;;;;;11.05;7.18;;;;;;;1.93;77.18;100928.19;121604;1157;22562;-75
2021/04/15 06:02:29;;;;;;;8.65;7.75;;;;;;;1.88;76.75;100920.67;121597;1158;22567;-75
2021/04/15 06:05:17;;;;;;;16.95;13.73;;;;;;;1.86;77.32;100918.15;121113;1158;25175;-78
2021/04/15 06:07:50;;;;;;;11.47;10.27;;;;;;;1.88;77.33;100918.07;121498;1158;22556;-75
2021/04/15 06:10:24;;;;;;;10.45;9.35;;;;;;;1.89;77.35;100923.17;121533;1158;22559;-74
2021/04/15 06:13:20;;;;;;;11.80;9.38;;;;;;;1.88;77.30;100916.30;121492;1158;23550;-75
2021/04/15 06:15:51;;;;;;;13.20;7.23;;;;;;;1.91;77.31;100909.23;121206;1161;22668;-76
2021/04/15 06:18:54;;;;;;;6.43;5.80;;;;;;;1.92;77.19;100911.72;121499;1159;24999;-75
2021/04/15 06:21:47;;;;;;;7.63;6.73;;;;;;;1.89;77.45;100904.93;121138;1161;22575;-77
2021/04/15 06:24:27;;;;;;;10.50;7.25;;;;;;;1.89;77.32;100912.75;121351;1159;23162;-77
2021/04/15 06:27:05;;;;;;;8.65;6.65;;;;;;;1.93;77.53;100904.73;121191;1158;22594;-75
2021/04/15 06:30:06;;;;;;;10.10;7.63;;;;;;;1.97;77.60;100906.23;121182;1158;22579;-74
2021/04/15 06:32:59;;;;;;;9.05;7.35;;;;;;;2.01;77.76;100905.92;121184;1161;22584;-75
2021/04/15 06:35:33;;;;;;;11.13;5.93;;;;;;;2.03;77.51;100906.67;121233;1158;22700;-74
2021/04/15 06:38:25;;;;;;;6.68;6.03;;;;;;;2.08;77.84;100906.37;121105;1162;23375;-76
2021/04/15 06:41:29;;;;;;;7.73;7.03;;;;;;;2.09;77.58;100900.20;121407;1158;22563;-75
2021/04/15 06:44:44;;;;;;;8.47;7.57;;;;;;;2.07;77.51;100897.72;121540;1158;22567;-75
2021/04/15 06:47:35;;;;;;;9.50;8.48;;;;;;;2.11;77.95;100896.58;121775;1156;22592;-77
2021/04/15 06:50:50;;;;;;;7.80;7.00;;;;;;;2.22;78.07;100892.42;122124;1155;22541;-77
2021/04/15 06:54:08;;;;;;;18.90;7.08;;;;;;;2.30;78.21;100896.22;121471;1158;22561;-77
2021/04/15 06:57:36;;;;;;;6.13;5.50;;;;;;;2.38;77.87;100893.09;121735;1156;22557;-77
2021/04/15 07:00:34;;;;;;;7.40;5.98;;;;;;;2.48;78.03;100888.09;121572;1158;22561;-77
2021/04/15 07:03:38;;;;;;;6.35;5.55;;;;;;;2.55;77.86;100886.75;121601;1158;22629;-78
2021/04/15 07:06:29;;;;;;;8.00;5.83;;;;;;;2.58;77.58;100886.55;121809;1158;22563;-77
2021/04/15 07:09:21;;;;;;;9.05;5.95;;;;;;;2.62;77.60;100893.22;121218;1161;22572;-77
2021/04/15 07:12:23;;;;;;;5.80;4.90;;;;;;;2.66;77.48;100888.63;121463;1160;22569;-78
2021/04/15 07:15:27;;;;;;;4.53;3.97;;;;;;;2.67;77.44;100883.32;121465;1160;22583;-78
2021/04/15 07:19:04;;;;;;;5.68;3.93;;;;;;;2.73;77.62;100889.88;121550;1159;23444;-78
2021/04/15 07:22:12;;;;;;;4.85;4.35;;;;;;;2.78;77.56;100885.19;121644;1158;22558;-78
2021/04/15 07:25:02;;;;;;;5.93;4.40;;;;;;;2.84;77.60;100887.39;121584;1159;24810;-78
2021/04/15 07:28:07;;;;;;;5.08;4.13;;;;;;;2.89;77.24;100889.67;121383;1158;22753;-79
2021/04/15 07:31:34;;;;;;;6.80;4.60;;;;;;;2.93;77.34;100889.38;121585;1160;22631;-77
2021/04/15 07:34:30;;;;;;;6.27;3.87;;;;;;;2.95;77.14;100884.04;121603;1161;22570;-77
2021/04/15 07:37:13;;;;;;;8.63;4.08;;;;;;;2.94;76.92;100877.98;121348;1158;24480;-77
2021/04/15 07:40:01;;;;;;;4.15;3.68;;;;;;;2.95;76.88;100891.87;121566;1159;22556;-77
2021/04/15 07:42:51;;;;;;;5.78;3.85;;;;;;;3.01;77.06;100881.01;121541;1159;23346;-79
2021/04/15 07:46:03;;;;;;;5.63;3.68;;;;;;;3.05;77.09;100880.68;121639;1155;22544;-77
2021/04/15 07:49:09;;;;;;;4.43;3.53;;;;;;;3.10;77.06;100876.91;122123;1152;22958;-76
2021/04/15 07:51:47;;;;;;;6.95;5.05;;;;;;;3.16;76.95;100877.31;122240;1154;22527;-77
2021/04/15 07:55:08;;;;;;;9.15;4.35;;;;;;;3.22;76.88;100876.06;122403;1151;24683;-79
2021/04/15 07:58:26;;;;;;;8.35;5.88;;;;;;;3.29;77.10;100880.73;122063;1155;22655;-79
2021/04/15 08:01:05;;;;;;;7.50;5.78;;;;;;;3.32;76.95;100879.69;121545;1158;22559;-78
2021/04/15 08:03:46;;;;;;;34.60;16.97;;;;;;;3.39;76.90;100882.70;121183;1161;22560;-78
2021/04/15 08:06:45;;;;;;;13.70;7.78;;;;;;;3.42;76.93;100872.88;121150;1158;22582;-79
2021/04/15 08:09:50;;;;;;;10.18;5.15;;;;;;;3.48;76.58;100872.45;121165;1158;22632;-77
2021/04/15 08:12:29;;;;;;;7.33;4.90;;;;;;;3.51;76.59;100876.63;121231;1158;22788;-78
2021/04/15 08:15:20;;;;;;;7.40;5.03;;;;;;;3.57;76.56;100876.19;121282;1158;22592;-80
2021/04/15 08:18:06;;;;;;;8.28;5.10;;;;;;;3.61;75.96;100875.02;121094;1158;22737;-79
2021/04/15 08:20:53;;;;;;;9.10;5.58;;;;;;;3.62;76.50;100873.23;121593;1158;23700;-83
2021/04/15 08:23:59;;;;;;;8.63;4.60;;;;;;;3.64;75.90;100871.36;122469;1152;22621;-80
2021/04/15 08:26:58;;;;;;;9.33;5.68;;;;;;;3.59;75.72;100874.28;122464;1152;22538;-81
2021/04/15 08:29:56;;;;;;;7.75;4.50;;;;;;;3.60;75.93;100878.59;122713;1151;22856;-77
2021/04/15 08:32:47;;;;;;;5.15;3.48;;;;;;;3.62;75.88;100881.91;122438;1152;22516;-79
2021/04/15 08:35:54;;;;;;;3.55;3.00;;;;;;;3.61;75.61;100869.80;122164;1154;22856;-78
2021/04/15 08:38:53;;;;;;;3.95;3.55;;;;;;;3.62;75.68;100875.84;122256;1153;22534;-76
2021/04/15 08:42:05;;;;;;;3.88;3.08;;;;;;;3.60;75.35;100872.50;121845;1155;24683;-76
2021/04/15 08:45:03;;;;;;;4.53;3.27;;;;;;;3.51;75.19;100877.45;121549;1155;22623;-74
2021/04/15 08:48:04;;;;;;;5.40;4.35;;;;;;;3.45;75.17;100872.66;121631;1155;22539;-75
2021/04/15 08:50:58;;;;;;;6.03;4.25;;;;;;;3.36;75.13;100875.91;121676;1158;24703;-77
2021/04/15 08:54:19;;;;;;;4.33;3.35;;;;;;;3.33;75.34;100877.91;121917;1155;22538;-75
2021/04/15 08:57:25;;;;;;;4.75;3.58;;;;;;;3.35;75.49;100865.59;122164;1155;22540;-75
2021/04/15 09:00:12;;;;;;;6.68;4.38;;;;;;;3.38;75.62;100862.77;122308;1152;22546;-76
2021/04/15 09:03:05;;;;;;;6.55;5.00;;;;;;;3.42;75.64;100857.20;122457;1152;22540;-76
2021/04/15 09:06:19;;;;;;;5.13;3.78;;;;;;;3.39;75.50;100859.20;122264;1154;22592;-76
2021/04/15 09:09:24;;;;;;;5.30;4.00;;;;;;;3.37;75.60;100861.11;122002;1155;24560;-76
2021/04/15 09:12:42;;;;;;;5.70;4.55;;;;;;;3.37;75.68;100858.50;122089;1155;24487;-74
2021/04/15 09:15:29;;;;;;;8.90;5.08;;;;;;;3.35;75.59;100855.14;121652;1155;23578;-75
2021/04/15 09:18:12;;;;;;;11.37;7.40;;;;;;;3.45;76.00;100854.38;121790;1155;22549;-75
2021/04/15 09:21:21;;;;;;;9.60;6.85;;;;;;;3.51;75.95;100856.55;121276;1158;24169;-75
2021/04/15 09:24:26;;;;;;;8.15;6.10;;;;;;;3.58;76.00;100856.13;121468;1159;22569;-74
2021/04/15 09:27:22;;;;;;;7.60;5.73;;;;;;;3.62;75.69;100855.78;121500;1158;22868;-74
2021/04/15 09:30:38;;;;;;;6.85;5.13;;;;;;;3.60;75.60;100855.08;121503;1158;22665;-74
2021/04/15 09:33:24;;;;;;;7.45;6.18;;;;;;;3.61;75.75;100856.73;121240;1158;22575;-74
2021/04/15 09:36:05;;;;;;;7.75;4.75;;;;;;;3.67;75.73;100856.30;121273;1158;24182;-81
2021/04/15 09:38:51;;;;;;;7.20;5.53;;;;;;;3.73;75.65;100858.47;121603;1155;22592;-80
2021/04/15 09:42:12;;;;;;;11.88;7.28;;;;;;;3.77;75.89;100852.06;122064;1156;22600;-77
2021/04/15 09:45:21;;;;;;;10.40;8.15;;;;;;;3.86;75.93;100853.16;121262;1158;22700;-77
2021/04/15 09:48:32;;;;;;;10.70;6.03;;;;;;;3.93;75.88;100851.78;122118;1155;22545;-77
2021/04/15 09:51:40;;;;;;;8.18;5.93;;;;;;;4.00;75.89;100852.17;121757;1155;22597;-76
2021/04/15 09:54:36;;;;;;;9.25;6.78;;;;;;;4.04;75.67;100847.55;122081;1155;22544;-78
2021/04/15 09:57:28;;;;;;;7.50;4.78;;;;;;;4.07;75.51;100848.15;121953;1155;22541;-80
2021/04/15 10:00:16;;;;;;;6.05;4.83;;;;;;;4.12;75.49;100850.41;121785;1155;22558;-81
2021/04/15 10:03:23;;;;;;;7.60;5.10;;;;;;;4.14;75.32;100845.91;122094;1155;22548;-78
2021/04/15 10:06:02;;;;;;;8.48;5.53;;;;;;;4.19;75.49;100841.98;122149;1155;24706;-81
2021/04/15 10:08:38;;;;;;;6.73;6.03;;;;;;;4.24;75.52;100841.66;122385;1155;22445;-77
2021/04/15 10:11:15;;;;;;;4.83;4.30;;;;;;;4.28;75.27;100837.03;121744;1155;22622;-74
2021/04/15 10:14:23;;;;;;;6.75;4.85;;;;;;;4.30;75.11;100842.96;121628;1157;23333;-74
2021/04/15 10:17:21;;;;;;;6.33;5.18;;;;;;;4.27;74.91;100845.84;121640;1158;24387;-75
2021/04/15 10:20:03;;;;;;;8.18;6.18;;;;;;;4.20;74.79;100843.67;122136;1155;23135;-75
2021/04/15 10:22:47;;;;;;;6.28;4.30;;;;;;;4.17;74.75;100840.45;122187;1155;22557;-74
2021/04/15 10:25:32;;;;;;;8.10;6.50;;;;;;;4.13;74.85;100844.22;122135;1155;24702;-74
2021/04/15 10:28:55;;;;;;;12.08;10.23;;;;;;;4.13;74.93;100837.24;121754;1154;26141;-74
2021/04/15 10:32:03;;;;;;;6.93;5.53;;;;;;;4.09;75.03;100835.78;122014;1155;25182;-73
2021/04/15 10:35:15;;;;;;;8.20;6.80;;;;;;;4.05;75.20;100831.73;122082;1155;22535;-73
2021/04/15 10:38:17;;;;;;;7.50;5.90;;;;;;;4.04;75.39;100837.92;122154;1152;22545;-76
2021/04/15 10:40:56;;;;;;;5.78;4.90;;;;;;;4.12;75.50;100827.70;122211;1152;22528;-74
2021/04/15 10:44:04;;;;;;;7.73;4.90;;;;;;;4.20;75.42;100829.77;122229;1152;22523;-75
2021/04/15 10:47:05;;;;;;;7.20;5.28;;;;;;;4.25;75.62;100825.84;122241;1151;23418;-74
2021/04/15 10:50:15;;;;;;;10.98;7.78;;;;;;;4.36;75.57;100829.43;122460;1151;23012;-79
2021/04/15 10:52:52;;;;;;;6.23;4.88;;;;;;;4.53;75.77;100823.74;122388;1152;22536;-76
2021/04/15 10:55:43;;;;;;;8.28;5.08;;;;;;;4.64;75.46;100831.63;122198;1155;22940;-75
2021/04/15 10:58:23;;;;;;;7.38;6.23;;;;;;;4.71;75.21;100821.52;121261;1159;22616;-71
2021/04/15 11:00:51;;;;;;;11.98;7.48;;;;;;;4.75;75.14;100822.11;121497;1159;24735;-72
2021/04/15 11:03:24;;;;;;;10.00;7.05;;;;;;;4.81;75.16;100819.85;121489;1158;22574;-71
2021/04/15 11:05:54;;;;;;;8.23;5.73;;;;;;;4.88;75.03;100831.51;121516;1158;22563;-72
2021/04/15 11:08:28;;;;;;;10.85;7.33;;;;;;;4.94;74.69;100817.94;121672;1159;22562;-71
2021/04/15 11:11:25;;;;;;;10.20;7.75;;;;;;;4.94;74.63;100822.35;121523;1159;22564;-71
2021/04/15 11:14:06;;;;;;;13.00;9.60;;;;;;;4.89;74.40;100820.08;121544;1158;22560;-71
2021/04/15 11:16:37;;;;;;;12.55;8.98;;;;;;;4.90;74.43;100818.31;121622;1157;22552;-70
2021/04/15 11:19:15;;;;;;;10.95;8.38;;;;;;;4.89;74.25;100821.86;121745;1155;22564;-72
2021/04/15 11:21:44;;;;;;;10.50;8.70;;;;;;;4.85;73.84;100823.89;122395;1152;22527;-70
2021/04/15 11:24:29;;;;;;;8.20;6.48;;;;;;;4.71;73.44;100822.34;122184;1154;22525;-71
2021/04/15 11:27:05;;;;;;;12.45;8.63;;;;;;;4.61;73.95;100820.56;122431;1152;24674;-72
2021/04/15 11:29:48;;;;;;;8.58;6.08;;;;;;;4.57;73.98;100825.20;122021;1155;22546;-70
2021/04/15 11:32:24;;;;;;;9.50;6.15;;;;;;;4.53;73.93;100828.97;121743;1156;23068;-71
2021/04/15 11:35:08;;;;;;;8.05;4.90;;;;;;;4.46;73.88;100818.17;121987;1156;22533;-71
2021/04/15 11:37:41;;;;;;;13.40;8.28;;;;;;;4.42;74.07;100824.56;122026;1155;22558;-71
2021/04/15 11:40:49;;;;;;;14.25;8.90;;;;;;;4.38;73.93;100823.14;121683;1155;22548;-71
2021/04/15 11:43:36;;;;;;;15.80;10.40;;;;;;;4.40;74.36;100821.25;121952;1154;22534;-71
2021/04/15 11:46:27;;;;;;;11.15;8.70;;;;;;;4.44;74.51;100817.45;121756;1155;22558;-71
2021/04/15 11:49:29;;;;;;;13.08;8.28;;;;;;;4.49;74.64;100817.08;122399;1152;22543;-71
2021/04/15 11:52:36;;;;;;;13.60;9.45;;;;;;;4.56;74.69;100820.89;122489;1152;22529;-70
2021/04/15 11:55:25;;;;;;;18.35;11.83;;;;;;;4.58;74.43;100820.80;122258;1152;22719;-71
2021/04/15 11:58:05;;;;;;;10.98;8.25;;;;;;;4.58;74.22;100824.23;122140;1154;22532;-71
2021/04/15 12:00:40;;;;;;;12.55;10.35;;;;;;;4.61;74.55;100817.94;122185;1152;22769;-70
2021/04/15 12:03:17;;;;;;;9.28;6.83;;;;;;;4.63;74.27;100819.50;122202;1152;22651;-71
2021/04/15 12:05:49;;;;;;;15.28;10.60;;;;;;;4.60;73.96;100819.73;122180;1154;24473;-72
2021/04/15 12:08:31;;;;;;;14.60;10.70;;;;;;;4.58;74.11;100816.39;122146;1154;22636;-70
2021/04/15 12:11:20;;;;;;;12.55;7.48;;;;;;;4.59;74.28;100811.98;122365;1152;22531;-70
2021/04/15 12:13:56;;;;;;;11.93;7.60;;;;;;;4.62;74.46;100815.20;122197;1152;24670;-73
2021/04/15 12:16:48;;;;;;;13.70;8.80;;;;;;;4.66;74.57;100819.23;122073;1152;25167;-71
2021/04/15 12:19:40;;;;;;;5.50;4.63;;;;;;;4.66;74.22;100819.23;122222;1154;22527;-70
2021/04/15 12:22:11;;;;;;;;;;;;;;;4.53;73.91;100818.51;122421;1155;22532;-71
2021/04/15 12:24:53;;;;;;;9.08;5.78;;;;;;;4.53;74.27;100817.68;122390;1152;21450;-70
2021/04/15 12:27:30;;;;;;;9.60;6.45;;;;;;;4.57;74.52;100814.73;122195;1152;25340;-70
2021/04/15 12:30:08;;;;;;;5.90;4.70;;;;;;;4.57;74.15;100814.73;122266;1152;22586;-71
2021/04/15 12:33:38;;;;;;;7.65;5.70;;;;;;;4.50;73.93;100816.16;122220;1152;24604;-71
2021/04/15 12:36:31;;;;;;;8.15;7.03;;;;;;;4.39;74.08;100819.56;121977;1155;22851;-70
2021/04/15 12:39:08;;;;;;;11.65;7.25;;;;;;;4.47;74.53;100825.06;121984;1155;22573;-70
2021/04/15 12:41:38;;;;;;;5.80;4.60;;;;;;;4.49;74.23;100815.30;121696;1154;22568;-71
2021/04/15 12:44:20;;;;;;;4.88;3.95;;;;;;;4.44;74.12;100814.83;121997;1155;22531;-71
2021/04/15 12:46:54;;;;;;;5.43;4.30;;;;;;;4.41;74.11;100820.30;121852;1156;22551;-71
2021/04/15 12:49:28;;;;;;;7.10;5.13;;;;;;;4.43;74.33;100812.31;121905;1155;22539;-71
2021/04/15 12:52:00;;;;;;;6.45;5.33;;;;;;;4.46;74.78;100818.17;121659;1158;22580;-71
2021/04/15 12:54:40;;;;;;;4.83;4.05;;;;;;;4.46;74.19;100814.70;121578;1158;22578;-71
2021/04/15 12:57:16;;;;;;;6.47;5.20;;;;;;;4.39;74.13;100818.73;121453;1158;22455;-72